Warning: Javascript must be enabled to use all the features on this page!


Page Loading - Please Wait...

Click to hideNews Bulletins

Peak Streamflow for the Nation

USGS 13246000 NF PAYETTE RIVER NR BANKS ID

Boise County, Idaho
Hydrologic Unit Code 17050123
Latitude  44°06'51", Longitude 116°06'26" NAD83
Drainage area 921  square miles
Gage datum 3,081.13 feet above NGVD29
Output formats
Table
Graph
Tab-separated file
peakfq (watstore) format
Reselect output format
Water
Year
Date Gage
Height
(feet)
Stream-
flow
(cfs)
1947 1947-05-11   8,8302,6
1948 1948-06-03 11.62 5,8406
1949 1949-05-21 9.692 3,5406
1950 1950-04-12 9.48 3,3506
1951 1951-04-29 9.91 3,8106
1952 1952-04-27 11.07 5,1906
1953 1953-06-18 11.85 6,3706
1954 1954-04-13 10.46 4,5406
1955 1955-06-25 8.98 2,9406
1956 1956-06-08 11.20 5,4806
1957 1957-05-24 11.76 6,3906
1958 1958-06-09 9.94 4,0206
1959 1959-04-06 9.58 3,5406
1960 1960-05-21 10.64 4,8706
1961 1961-09-09 8.35 2,4806
1962 1962-08-17 8.52 2,6006
1963 1963-06-05 11.29 5,7706
1964 1964-06-21 11.63 6,2406
1965 1964-12-23 11.93 6,7006
1966 1966-08-03 8.40 2,5006
1967 1967-09-23 8.45 2,5306
1968 1968-09-16 8.67 2,7306
1969 1969-06-13 9.49 3,5906
1970 1970-06-30 11.92 6,7706
1971 1971-06-29 12.76 8,0606
1972 1972-03-14 9.84 4,1306
1973 1973-09-01 8.98 3,0106
1974 1974-06-24 12.40 7,6506
1975 1975-05-15 9.76 4,0206
1976 1976-04-15 8.78 3,0106
1977 1976-10-02 7.26 1,7606
1978 1977-12-15 9.58 3,8106
1979 1979-08-13 8.19 2,5206
1980 1980-05-31 10.58 4,9906
1981 1981-06-13 11.30 5,9706
1982 1982-07-04 11.11 5,5606
1983 1983-05-05 10.22 4,3006
1984 1984-06-29 11.03 5,3806
1985 1985-06-01 9.12 3,3306
1986 1986-03-08 10.72 5,0806
1987 1987-08-19 7.62 2,0406
1988 1988-08-26 7.65 2,0306
1989 1989-06-19 9.18 3,3206
1990 1990-06-03 8.82 3,0606
1991 1991-07-15 7.70 2,0406
1992 1992-08-12 7.27 1,7006
1993 1993-06-11 11.55 6,2106
1994 1994-08-01 7.70 2,1306
1995 1995-06-08 10.51 4,9106
1996 1996-05-25 11.54 6,2206
1997 1997-01-01 11.09 5,6006
1998 1998-05-26 11.26 5,8306
1999 1999-06-21 10.54 4,8906
2000 2000-05-26 9.18 3,3506
2001 2001-08-30   1,5601,6
2002 2002-04-14 8.68 2,8406
2003 2003-06-09 10.13 4,3406
2004 2004-06-08 9.55 3,6906
2005 2005-05-21 9.15 3,2806
2006 2006-04-16 11.60 6,0706
2007 2007-05-18 7.93 2,1806
2008 2008-06-10 10.24 4,4706
2009 2009-06-07 10.93 5,3406
2010 2010-06-07 12.21 7,5206
2011 2011-06-30 10.40 4,8106
2012 2012-05-04 10.52 5,0606
2013 2013-06-26 8.29 2,5406
2014 2014-05-28 9.53 3,7606
2015 2015-06-19 7.74 2,0906
2016 2016-05-16 9.62 3,8706
2017 2017-03-30 11.50 6,2906
2018 2018-05-27 9.93 4,2206
2019 2019-04-20 11.13 5,7606
2020 2020-06-07 10.81 5,4306
2021 2021-06-23 7.54 1,9106
?
  Peak Gage-Height Qualification Codes.
?
  Peak Streamflow Qualification Codes.